sensor_id;sensor_type;location;lat;lon;timestamp;P1;durP1;ratioP1;P2;durP2;ratioP2
11548;SDS011;61444;59.472;18.306;2023-05-16T00:01:49;11.83;;;7.17;;
11548;SDS011;61444;59.472;18.306;2023-05-16T00:03:58;8.83;;;7.53;;
11548;SDS011;61444;59.472;18.306;2023-05-16T00:06:09;11.27;;;7.60;;
11548;SDS011;61444;59.472;18.306;2023-05-16T00:08:18;7.77;;;6.97;;
11548;SDS011;61444;59.472;18.306;2023-05-16T00:10:27;9.00;;;8.10;;
11548;SDS011;61444;59.472;18.306;2023-05-16T00:12:36;11.43;;;7.67;;
11548;SDS011;61444;59.472;18.306;2023-05-16T00:14:47;8.63;;;7.80;;
11548;SDS011;61444;59.472;18.306;2023-05-16T00:16:57;8.67;;;7.60;;
11548;SDS011;61444;59.472;18.306;2023-05-16T00:19:06;9.73;;;7.50;;
11548;SDS011;61444;59.472;18.306;2023-05-16T00:21:16;9.33;;;6.93;;
11548;SDS011;61444;59.472;18.306;2023-05-16T00:23:29;9.90;;;7.03;;
11548;SDS011;61444;59.472;18.306;2023-05-16T00:25:38;10.37;;;7.50;;
11548;SDS011;61444;59.472;18.306;2023-05-16T00:27:48;8.87;;;7.20;;
11548;SDS011;61444;59.472;18.306;2023-05-16T00:29:59;8.03;;;7.20;;
11548;SDS011;61444;59.472;18.306;2023-05-16T00:32:08;8.10;;;6.83;;
11548;SDS011;61444;59.472;18.306;2023-05-16T00:34:17;13.00;;;7.60;;
11548;SDS011;61444;59.472;18.306;2023-05-16T00:36:26;8.37;;;7.07;;
11548;SDS011;61444;59.472;18.306;2023-05-16T00:38:37;8.40;;;7.60;;
11548;SDS011;61444;59.472;18.306;2023-05-16T00:40:45;8.17;;;7.20;;
11548;SDS011;61444;59.472;18.306;2023-05-16T00:42:54;8.07;;;7.27;;
11548;SDS011;61444;59.472;18.306;2023-05-16T00:45:07;8.27;;;7.57;;
11548;SDS011;61444;59.472;18.306;2023-05-16T00:47:16;9.50;;;7.77;;
11548;SDS011;61444;59.472;18.306;2023-05-16T00:49:25;10.17;;;7.23;;
11548;SDS011;61444;59.472;18.306;2023-05-16T00:51:35;9.37;;;7.70;;
11548;SDS011;61444;59.472;18.306;2023-05-16T00:53:44;10.13;;;7.73;;
11548;SDS011;61444;59.472;18.306;2023-05-16T00:55:53;10.00;;;7.57;;
11548;SDS011;61444;59.472;18.306;2023-05-16T00:58:02;9.13;;;8.07;;
11548;SDS011;61444;59.472;18.306;2023-05-16T01:00:14;14.80;;;8.07;;
11548;SDS011;61444;59.472;18.306;2023-05-16T01:02:25;8.67;;;7.30;;
11548;SDS011;61444;59.472;18.306;2023-05-16T01:04:34;8.27;;;7.47;;
11548;SDS011;61444;59.472;18.306;2023-05-16T01:06:43;11.00;;;8.10;;
11548;SDS011;61444;59.472;18.306;2023-05-16T01:08:53;10.90;;;7.90;;
11548;SDS011;61444;59.472;18.306;2023-05-16T01:11:04;10.90;;;7.63;;
11548;SDS011;61444;59.472;18.306;2023-05-16T01:13:17;12.83;;;8.40;;
11548;SDS011;61444;59.472;18.306;2023-05-16T01:15:32;10.97;;;8.40;;
11548;SDS011;61444;59.472;18.306;2023-05-16T01:17:49;11.03;;;9.10;;
11548;SDS011;61444;59.472;18.306;2023-05-16T01:20:06;10.10;;;8.97;;
11548;SDS011;61444;59.472;18.306;2023-05-16T01:22:28;12.27;;;8.23;;
11548;SDS011;61444;59.472;18.306;2023-05-16T01:24:39;9.63;;;8.17;;
11548;SDS011;61444;59.472;18.306;2023-05-16T01:26:53;12.33;;;8.57;;
11548;SDS011;61444;59.472;18.306;2023-05-16T01:29:03;11.07;;;8.80;;
11548;SDS011;61444;59.472;18.306;2023-05-16T01:31:13;10.17;;;8.07;;
11548;SDS011;61444;59.472;18.306;2023-05-16T01:33:22;11.23;;;8.67;;
11548;SDS011;61444;59.472;18.306;2023-05-16T01:35:31;13.33;;;8.93;;
11548;SDS011;61444;59.472;18.306;2023-05-16T01:37:41;14.53;;;9.33;;
11548;SDS011;61444;59.472;18.306;2023-05-16T01:39:54;14.37;;;8.67;;
11548;SDS011;61444;59.472;18.306;2023-05-16T01:42:07;10.13;;;8.90;;
11548;SDS011;61444;59.472;18.306;2023-05-16T01:44:19;10.77;;;8.60;;
11548;SDS011;61444;59.472;18.306;2023-05-16T01:46:32;9.97;;;8.53;;
11548;SDS011;61444;59.472;18.306;2023-05-16T01:48:43;10.67;;;8.67;;
11548;SDS011;61444;59.472;18.306;2023-05-16T01:50:55;10.93;;;8.10;;
11548;SDS011;61444;59.472;18.306;2023-05-16T01:53:05;9.23;;;8.27;;
11548;SDS011;61444;59.472;18.306;2023-05-16T01:55:18;9.70;;;8.80;;
11548;SDS011;61444;59.472;18.306;2023-05-16T01:57:30;10.43;;;7.93;;
11548;SDS011;61444;59.472;18.306;2023-05-16T01:59:40;7.23;;;6.40;;
11548;SDS011;61444;59.472;18.306;2023-05-16T02:01:52;10.47;;;7.13;;
11548;SDS011;61444;59.472;18.306;2023-05-16T02:04:01;11.70;;;7.13;;
11548;SDS011;61444;59.472;18.306;2023-05-16T02:06:10;10.47;;;7.30;;
11548;SDS011;61444;59.472;18.306;2023-05-16T02:08:19;10.10;;;6.60;;
11548;SDS011;61444;59.472;18.306;2023-05-16T02:10:29;7.47;;;6.00;;
11548;SDS011;61444;59.472;18.306;2023-05-16T02:12:39;9.20;;;5.97;;
11548;SDS011;61444;59.472;18.306;2023-05-16T02:14:48;9.27;;;6.23;;
11548;SDS011;61444;59.472;18.306;2023-05-16T02:16:57;7.50;;;6.27;;
11548;SDS011;61444;59.472;18.306;2023-05-16T02:19:07;6.90;;;6.23;;
11548;SDS011;61444;59.472;18.306;2023-05-16T02:21:16;8.00;;;6.70;;
11548;SDS011;61444;59.472;18.306;2023-05-16T02:23:25;7.27;;;6.47;;
11548;SDS011;61444;59.472;18.306;2023-05-16T02:25:34;7.13;;;6.43;;
11548;SDS011;61444;59.472;18.306;2023-05-16T02:27:45;9.10;;;6.23;;
11548;SDS011;61444;59.472;18.306;2023-05-16T02:29:54;7.33;;;6.20;;
11548;SDS011;61444;59.472;18.306;2023-05-16T02:32:04;6.93;;;6.17;;
11548;SDS011;61444;59.472;18.306;2023-05-16T02:34:13;7.37;;;5.93;;
11548;SDS011;61444;59.472;18.306;2023-05-16T02:36:23;8.20;;;6.50;;
11548;SDS011;61444;59.472;18.306;2023-05-16T02:38:32;7.83;;;6.40;;
11548;SDS011;61444;59.472;18.306;2023-05-16T02:40:41;7.47;;;5.90;;
11548;SDS011;61444;59.472;18.306;2023-05-16T02:42:51;7.33;;;6.63;;
11548;SDS011;61444;59.472;18.306;2023-05-16T02:45:00;6.67;;;6.07;;
11548;SDS011;61444;59.472;18.306;2023-05-16T02:47:09;9.20;;;6.47;;
11548;SDS011;61444;59.472;18.306;2023-05-16T02:49:18;7.10;;;6.13;;
11548;SDS011;61444;59.472;18.306;2023-05-16T02:51:27;6.63;;;5.90;;
11548;SDS011;61444;59.472;18.306;2023-05-16T02:53:36;7.30;;;6.60;;
11548;SDS011;61444;59.472;18.306;2023-05-16T02:55:45;8.10;;;6.50;;
11548;SDS011;61444;59.472;18.306;2023-05-16T02:57:56;6.67;;;5.90;;
11548;SDS011;61444;59.472;18.306;2023-05-16T03:00:05;7.10;;;6.40;;
11548;SDS011;61444;59.472;18.306;2023-05-16T03:02:17;9.10;;;6.47;;
11548;SDS011;61444;59.472;18.306;2023-05-16T03:04:26;7.77;;;6.27;;
11548;SDS011;61444;59.472;18.306;2023-05-16T03:06:34;9.10;;;6.30;;
11548;SDS011;61444;59.472;18.306;2023-05-16T03:08:43;9.63;;;6.07;;
11548;SDS011;61444;59.472;18.306;2023-05-16T03:10:53;7.00;;;5.87;;
11548;SDS011;61444;59.472;18.306;2023-05-16T03:13:03;9.37;;;6.43;;
11548;SDS011;61444;59.472;18.306;2023-05-16T03:15:12;7.27;;;6.20;;
11548;SDS011;61444;59.472;18.306;2023-05-16T03:17:22;6.97;;;6.37;;
11548;SDS011;61444;59.472;18.306;2023-05-16T03:19:32;7.13;;;6.07;;
11548;SDS011;61444;59.472;18.306;2023-05-16T03:21:41;6.80;;;5.97;;
11548;SDS011;61444;59.472;18.306;2023-05-16T03:23:51;6.37;;;5.70;;
11548;SDS011;61444;59.472;18.306;2023-05-16T03:26:00;7.17;;;5.90;;
11548;SDS011;61444;59.472;18.306;2023-05-16T03:28:11;8.87;;;5.77;;
11548;SDS011;61444;59.472;18.306;2023-05-16T03:30:20;8.53;;;5.90;;
11548;SDS011;61444;59.472;18.306;2023-05-16T03:32:30;6.93;;;5.67;;
11548;SDS011;61444;59.472;18.306;2023-05-16T03:34:39;5.70;;;5.20;;
11548;SDS011;61444;59.472;18.306;2023-05-16T03:36:48;6.53;;;5.83;;
11548;SDS011;61444;59.472;18.306;2023-05-16T03:38:58;6.93;;;5.23;;
11548;SDS011;61444;59.472;18.306;2023-05-16T03:41:06;10.00;;;6.27;;
11548;SDS011;61444;59.472;18.306;2023-05-16T03:43:17;6.80;;;5.83;;
11548;SDS011;61444;59.472;18.306;2023-05-16T03:45:26;6.77;;;5.77;;
11548;SDS011;61444;59.472;18.306;2023-05-16T03:47:36;6.13;;;5.63;;
11548;SDS011;61444;59.472;18.306;2023-05-16T03:49:46;5.70;;;5.00;;
11548;SDS011;61444;59.472;18.306;2023-05-16T03:51:55;7.57;;;5.43;;
11548;SDS011;61444;59.472;18.306;2023-05-16T03:54:04;10.73;;;5.87;;
11548;SDS011;61444;59.472;18.306;2023-05-16T03:56:13;8.73;;;5.80;;
11548;SDS011;61444;59.472;18.306;2023-05-16T03:58:23;6.27;;;5.67;;
11548;SDS011;61444;59.472;18.306;2023-05-16T04:00:32;8.17;;;5.23;;
11548;SDS011;61444;59.472;18.306;2023-05-16T04:02:42;7.07;;;5.80;;
11548;SDS011;61444;59.472;18.306;2023-05-16T04:04:51;6.87;;;5.70;;
11548;SDS011;61444;59.472;18.306;2023-05-16T04:07:01;6.37;;;5.67;;
11548;SDS011;61444;59.472;18.306;2023-05-16T04:09:09;7.63;;;5.67;;
11548;SDS011;61444;59.472;18.306;2023-05-16T04:11:19;7.20;;;5.90;;
11548;SDS011;61444;59.472;18.306;2023-05-16T04:13:29;7.57;;;5.43;;
11548;SDS011;61444;59.472;18.306;2023-05-16T04:15:38;6.43;;;5.80;;
11548;SDS011;61444;59.472;18.306;2023-05-16T04:17:47;8.13;;;5.80;;
11548;SDS011;61444;59.472;18.306;2023-05-16T04:19:56;10.43;;;5.83;;
11548;SDS011;61444;59.472;18.306;2023-05-16T04:22:05;6.47;;;5.80;;
11548;SDS011;61444;59.472;18.306;2023-05-16T04:24:14;7.07;;;5.43;;
11548;SDS011;61444;59.472;18.306;2023-05-16T04:26:23;7.73;;;5.83;;
11548;SDS011;61444;59.472;18.306;2023-05-16T04:28:34;7.03;;;6.10;;
11548;SDS011;61444;59.472;18.306;2023-05-16T04:30:43;9.30;;;6.20;;
11548;SDS011;61444;59.472;18.306;2023-05-16T04:32:53;10.03;;;6.03;;
11548;SDS011;61444;59.472;18.306;2023-05-16T04:35:02;6.87;;;5.70;;
11548;SDS011;61444;59.472;18.306;2023-05-16T04:37:12;8.43;;;6.23;;
11548;SDS011;61444;59.472;18.306;2023-05-16T04:39:21;6.47;;;5.87;;
11548;SDS011;61444;59.472;18.306;2023-05-16T04:41:30;7.83;;;5.50;;
11548;SDS011;61444;59.472;18.306;2023-05-16T04:43:43;6.03;;;5.30;;
11548;SDS011;61444;59.472;18.306;2023-05-16T04:45:52;6.93;;;5.80;;
11548;SDS011;61444;59.472;18.306;2023-05-16T04:48:01;7.20;;;6.13;;
11548;SDS011;61444;59.472;18.306;2023-05-16T04:50:10;10.37;;;6.00;;
11548;SDS011;61444;59.472;18.306;2023-05-16T04:52:20;7.47;;;6.03;;
11548;SDS011;61444;59.472;18.306;2023-05-16T04:54:29;6.57;;;5.90;;
11548;SDS011;61444;59.472;18.306;2023-05-16T04:56:38;6.73;;;5.90;;
11548;SDS011;61444;59.472;18.306;2023-05-16T04:58:48;8.70;;;6.80;;
11548;SDS011;61444;59.472;18.306;2023-05-16T05:00:57;7.10;;;6.27;;
11548;SDS011;61444;59.472;18.306;2023-05-16T05:03:07;7.70;;;7.00;;
11548;SDS011;61444;59.472;18.306;2023-05-16T05:05:16;7.57;;;6.53;;
11548;SDS011;61444;59.472;18.306;2023-05-16T05:07:26;7.93;;;6.27;;
11548;SDS011;61444;59.472;18.306;2023-05-16T05:09:35;11.67;;;6.70;;
11548;SDS011;61444;59.472;18.306;2023-05-16T05:11:44;9.70;;;6.60;;
11548;SDS011;61444;59.472;18.306;2023-05-16T05:13:55;8.70;;;7.00;;
11548;SDS011;61444;59.472;18.306;2023-05-16T05:16:04;9.70;;;7.20;;
11548;SDS011;61444;59.472;18.306;2023-05-16T05:18:13;8.27;;;7.47;;
11548;SDS011;61444;59.472;18.306;2023-05-16T05:20:23;7.67;;;6.83;;
11548;SDS011;61444;59.472;18.306;2023-05-16T05:22:32;7.87;;;7.07;;
11548;SDS011;61444;59.472;18.306;2023-05-16T05:24:41;8.60;;;7.70;;
11548;SDS011;61444;59.472;18.306;2023-05-16T05:26:50;9.60;;;7.40;;
11548;SDS011;61444;59.472;18.306;2023-05-16T05:29:00;10.07;;;7.53;;
11548;SDS011;61444;59.472;18.306;2023-05-16T05:31:11;8.37;;;7.57;;
11548;SDS011;61444;59.472;18.306;2023-05-16T05:33:24;9.70;;;7.77;;
11548;SDS011;61444;59.472;18.306;2023-05-16T05:35:33;8.40;;;7.60;;
11548;SDS011;61444;59.472;18.306;2023-05-16T05:37:43;7.93;;;7.17;;
11548;SDS011;61444;59.472;18.306;2023-05-16T05:39:52;9.03;;;7.73;;
11548;SDS011;61444;59.472;18.306;2023-05-16T05:42:01;8.30;;;7.50;;
11548;SDS011;61444;59.472;18.306;2023-05-16T05:44:12;8.50;;;7.60;;
11548;SDS011;61444;59.472;18.306;2023-05-16T05:46:21;8.37;;;7.50;;
11548;SDS011;61444;59.472;18.306;2023-05-16T05:48:30;8.33;;;7.47;;
11548;SDS011;61444;59.472;18.306;2023-05-16T05:50:39;8.60;;;7.60;;
11548;SDS011;61444;59.472;18.306;2023-05-16T05:52:48;10.20;;;8.17;;
11548;SDS011;61444;59.472;18.306;2023-05-16T05:54:57;9.57;;;8.13;;
11548;SDS011;61444;59.472;18.306;2023-05-16T05:57:06;10.30;;;7.97;;
11548;SDS011;61444;59.472;18.306;2023-05-16T05:59:16;8.50;;;7.67;;
11548;SDS011;61444;59.472;18.306;2023-05-16T06:01:25;9.07;;;8.03;;
11548;SDS011;61444;59.472;18.306;2023-05-16T06:03:34;9.33;;;8.30;;
11548;SDS011;61444;59.472;18.306;2023-05-16T06:05:44;10.67;;;8.37;;
11548;SDS011;61444;59.472;18.306;2023-05-16T06:07:53;10.30;;;8.10;;
11548;SDS011;61444;59.472;18.306;2023-05-16T06:10:02;8.90;;;8.07;;
11548;SDS011;61444;59.472;18.306;2023-05-16T06:12:13;9.23;;;8.33;;
11548;SDS011;61444;59.472;18.306;2023-05-16T06:14:24;9.37;;;8.33;;
11548;SDS011;61444;59.472;18.306;2023-05-16T06:16:33;10.47;;;8.57;;
11548;SDS011;61444;59.472;18.306;2023-05-16T06:18:42;9.53;;;8.63;;
11548;SDS011;61444;59.472;18.306;2023-05-16T06:20:52;10.00;;;8.60;;
11548;SDS011;61444;59.472;18.306;2023-05-16T06:23:01;10.13;;;8.30;;
11548;SDS011;61444;59.472;18.306;2023-05-16T06:25:10;9.17;;;8.23;;
11548;SDS011;61444;59.472;18.306;2023-05-16T06:27:19;8.77;;;7.97;;
11548;SDS011;61444;59.472;18.306;2023-05-16T06:29:30;10.13;;;8.10;;
11548;SDS011;61444;59.472;18.306;2023-05-16T06:31:39;8.83;;;7.93;;
11548;SDS011;61444;59.472;18.306;2023-05-16T06:33:48;8.63;;;7.73;;
11548;SDS011;61444;59.472;18.306;2023-05-16T06:35:56;9.03;;;8.13;;
11548;SDS011;61444;59.472;18.306;2023-05-16T06:38:06;8.03;;;7.27;;
11548;SDS011;61444;59.472;18.306;2023-05-16T06:40:15;8.20;;;7.20;;
11548;SDS011;61444;59.472;18.306;2023-05-16T06:42:24;13.13;;;7.63;;
11548;SDS011;61444;59.472;18.306;2023-05-16T06:44:35;9.37;;;7.93;;
11548;SDS011;61444;59.472;18.306;2023-05-16T06:46:44;9.03;;;8.13;;
11548;SDS011;61444;59.472;18.306;2023-05-16T06:48:53;7.80;;;7.07;;
11548;SDS011;61444;59.472;18.306;2023-05-16T06:51:02;13.20;;;7.07;;
11548;SDS011;61444;59.472;18.306;2023-05-16T06:53:12;8.20;;;7.37;;
11548;SDS011;61444;59.472;18.306;2023-05-16T06:55:21;9.50;;;7.87;;
11548;SDS011;61444;59.472;18.306;2023-05-16T06:57:30;9.13;;;8.23;;
11548;SDS011;61444;59.472;18.306;2023-05-16T06:59:41;9.13;;;8.10;;
11548;SDS011;61444;59.472;18.306;2023-05-16T07:01:50;8.40;;;7.43;;
11548;SDS011;61444;59.472;18.306;2023-05-16T07:04:00;10.53;;;7.53;;
11548;SDS011;61444;59.472;18.306;2023-05-16T07:06:09;9.23;;;7.90;;
11548;SDS011;61444;59.472;18.306;2023-05-16T07:08:18;10.17;;;7.53;;
11548;SDS011;61444;59.472;18.306;2023-05-16T07:10:27;8.60;;;7.80;;
11548;SDS011;61444;59.472;18.306;2023-05-16T07:12:36;9.03;;;7.87;;
11548;SDS011;61444;59.472;18.306;2023-05-16T07:14:46;9.87;;;7.63;;
11548;SDS011;61444;59.472;18.306;2023-05-16T07:16:55;11.20;;;8.23;;
11548;SDS011;61444;59.472;18.306;2023-05-16T07:19:05;8.63;;;7.83;;
11548;SDS011;61444;59.472;18.306;2023-05-16T07:21:14;9.50;;;7.57;;
11548;SDS011;61444;59.472;18.306;2023-05-16T07:23:22;8.70;;;7.90;;
11548;SDS011;61444;59.472;18.306;2023-05-16T07:25:31;8.30;;;7.27;;
11548;SDS011;61444;59.472;18.306;2023-05-16T07:27:41;8.87;;;8.07;;
11548;SDS011;61444;59.472;18.306;2023-05-16T07:29:52;8.70;;;7.90;;
11548;SDS011;61444;59.472;18.306;2023-05-16T07:32:01;9.20;;;8.30;;
11548;SDS011;61444;59.472;18.306;2023-05-16T07:34:09;7.30;;;6.70;;
11548;SDS011;61444;59.472;18.306;2023-05-16T07:36:18;9.73;;;7.77;;
11548;SDS011;61444;59.472;18.306;2023-05-16T07:38:27;9.70;;;8.37;;
11548;SDS011;61444;59.472;18.306;2023-05-16T07:40:36;9.27;;;7.97;;
11548;SDS011;61444;59.472;18.306;2023-05-16T07:42:46;9.07;;;8.17;;
11548;SDS011;61444;59.472;18.306;2023-05-16T07:44:56;9.47;;;8.57;;
11548;SDS011;61444;59.472;18.306;2023-05-16T07:47:06;9.63;;;8.73;;
11548;SDS011;61444;59.472;18.306;2023-05-16T07:49:14;9.50;;;8.50;;
11548;SDS011;61444;59.472;18.306;2023-05-16T07:51:23;10.90;;;9.47;;
11548;SDS011;61444;59.472;18.306;2023-05-16T07:53:32;9.57;;;8.67;;
11548;SDS011;61444;59.472;18.306;2023-05-16T07:55:42;10.50;;;9.00;;
11548;SDS011;61444;59.472;18.306;2023-05-16T07:57:51;11.33;;;9.33;;
11548;SDS011;61444;59.472;18.306;2023-05-16T08:00:01;9.83;;;8.93;;
11548;SDS011;61444;59.472;18.306;2023-05-16T08:02:10;8.87;;;7.93;;
11548;SDS011;61444;59.472;18.306;2023-05-16T08:04:19;11.23;;;9.23;;
11548;SDS011;61444;59.472;18.306;2023-05-16T08:06:29;8.93;;;8.03;;
11548;SDS011;61444;59.472;18.306;2023-05-16T08:08:38;10.50;;;8.60;;
11548;SDS011;61444;59.472;18.306;2023-05-16T08:10:47;9.23;;;8.23;;
11548;SDS011;61444;59.472;18.306;2023-05-16T08:12:56;10.20;;;8.80;;
11548;SDS011;61444;59.472;18.306;2023-05-16T08:15:08;9.93;;;8.83;;
11548;SDS011;61444;59.472;18.306;2023-05-16T08:17:17;9.33;;;8.43;;
11548;SDS011;61444;59.472;18.306;2023-05-16T08:19:27;9.30;;;8.40;;
11548;SDS011;61444;59.472;18.306;2023-05-16T08:21:36;10.03;;;7.87;;
11548;SDS011;61444;59.472;18.306;2023-05-16T08:23:46;12.43;;;8.47;;
11548;SDS011;61444;59.472;18.306;2023-05-16T08:25:55;9.13;;;8.07;;
11548;SDS011;61444;59.472;18.306;2023-05-16T08:28:04;9.97;;;8.60;;
11548;SDS011;61444;59.472;18.306;2023-05-16T08:30:15;9.50;;;7.47;;
11548;SDS011;61444;59.472;18.306;2023-05-16T08:32:24;9.07;;;7.47;;
11548;SDS011;61444;59.472;18.306;2023-05-16T08:34:33;7.30;;;6.70;;
11548;SDS011;61444;59.472;18.306;2023-05-16T08:36:42;10.97;;;7.60;;
11548;SDS011;61444;59.472;18.306;2023-05-16T08:38:51;9.30;;;7.20;;
11548;SDS011;61444;59.472;18.306;2023-05-16T08:41:00;8.20;;;7.40;;
11548;SDS011;61444;59.472;18.306;2023-05-16T08:43:09;7.70;;;7.00;;
11548;SDS011;61444;59.472;18.306;2023-05-16T08:45:20;7.50;;;6.80;;
11548;SDS011;61444;59.472;18.306;2023-05-16T08:47:30;6.97;;;6.27;;
11548;SDS011;61444;59.472;18.306;2023-05-16T08:49:40;7.77;;;6.93;;
11548;SDS011;61444;59.472;18.306;2023-05-16T08:51:50;7.93;;;7.13;;
11548;SDS011;61444;59.472;18.306;2023-05-16T08:54:02;9.73;;;7.30;;
11548;SDS011;61444;59.472;18.306;2023-05-16T08:56:11;7.10;;;6.40;;
11548;SDS011;61444;59.472;18.306;2023-05-16T08:58:21;7.57;;;6.93;;
11548;SDS011;61444;59.472;18.306;2023-05-16T09:00:32;8.43;;;6.67;;
11548;SDS011;61444;59.472;18.306;2023-05-16T09:02:43;7.17;;;6.03;;
11548;SDS011;61444;59.472;18.306;2023-05-16T09:04:52;7.10;;;6.40;;
11548;SDS011;61444;59.472;18.306;2023-05-16T09:07:02;6.60;;;6.00;;
11548;SDS011;61444;59.472;18.306;2023-05-16T09:09:11;6.50;;;5.90;;
11548;SDS011;61444;59.472;18.306;2023-05-16T09:11:20;6.63;;;6.00;;
11548;SDS011;61444;59.472;18.306;2023-05-16T09:13:28;7.80;;;6.20;;
11548;SDS011;61444;59.472;18.306;2023-05-16T09:15:39;6.07;;;5.47;;
11548;SDS011;61444;59.472;18.306;2023-05-16T09:17:49;6.27;;;5.67;;
11548;SDS011;61444;59.472;18.306;2023-05-16T09:19:58;5.97;;;5.40;;
11548;SDS011;61444;59.472;18.306;2023-05-16T09:22:08;6.30;;;5.80;;
11548;SDS011;61444;59.472;18.306;2023-05-16T09:24:17;6.67;;;4.97;;
11548;SDS011;61444;59.472;18.306;2023-05-16T09:26:33;5.50;;;5.00;;
11548;SDS011;61444;59.472;18.306;2023-05-16T09:28:43;6.20;;;5.60;;
11548;SDS011;61444;59.472;18.306;2023-05-16T09:30:53;6.10;;;5.50;;
11548;SDS011;61444;59.472;18.306;2023-05-16T09:33:05;5.97;;;5.37;;
11548;SDS011;61444;59.472;18.306;2023-05-16T09:35:15;6.17;;;5.57;;
11548;SDS011;61444;59.472;18.306;2023-05-16T09:37:44;5.63;;;5.13;;
11548;SDS011;61444;59.472;18.306;2023-05-16T09:39:53;5.67;;;5.17;;
11548;SDS011;61444;59.472;18.306;2023-05-16T09:42:02;4.83;;;4.43;;
11548;SDS011;61444;59.472;18.306;2023-05-16T09:44:11;5.37;;;4.87;;
11548;SDS011;61444;59.472;18.306;2023-05-16T09:46:25;6.97;;;5.20;;
11548;SDS011;61444;59.472;18.306;2023-05-16T09:48:39;5.30;;;4.80;;
11548;SDS011;61444;59.472;18.306;2023-05-16T09:50:49;5.03;;;4.53;;
11548;SDS011;61444;59.472;18.306;2023-05-16T09:52:59;4.83;;;4.33;;
11548;SDS011;61444;59.472;18.306;2023-05-16T09:55:08;4.90;;;4.40;;
11548;SDS011;61444;59.472;18.306;2023-05-16T09:57:17;4.93;;;4.13;;
11548;SDS011;61444;59.472;18.306;2023-05-16T09:59:27;4.30;;;4.00;;
11548;SDS011;61444;59.472;18.306;2023-05-16T10:01:38;3.80;;;3.50;;
11548;SDS011;61444;59.472;18.306;2023-05-16T10:03:47;5.63;;;3.90;;
11548;SDS011;61444;59.472;18.306;2023-05-16T10:05:57;3.90;;;3.60;;
11548;SDS011;61444;59.472;18.306;2023-05-16T10:08:07;4.00;;;3.60;;
11548;SDS011;61444;59.472;18.306;2023-05-16T10:10:17;4.23;;;3.87;;
11548;SDS011;61444;59.472;18.306;2023-05-16T10:12:28;4.53;;;3.63;;
11548;SDS011;61444;59.472;18.306;2023-05-16T10:14:38;4.17;;;3.87;;
11548;SDS011;61444;59.472;18.306;2023-05-16T10:16:50;6.33;;;4.30;;
11548;SDS011;61444;59.472;18.306;2023-05-16T10:19:00;4.10;;;3.80;;
11548;SDS011;61444;59.472;18.306;2023-05-16T10:21:12;3.97;;;3.57;;
11548;SDS011;61444;59.472;18.306;2023-05-16T10:23:23;3.90;;;3.60;;
11548;SDS011;61444;59.472;18.306;2023-05-16T10:25:33;4.23;;;3.73;;
11548;SDS011;61444;59.472;18.306;2023-05-16T10:27:43;3.87;;;3.57;;
11548;SDS011;61444;59.472;18.306;2023-05-16T10:29:52;4.23;;;3.70;;
11548;SDS011;61444;59.472;18.306;2023-05-16T10:32:06;3.40;;;3.10;;
11548;SDS011;61444;59.472;18.306;2023-05-16T10:34:15;4.30;;;3.90;;
11548;SDS011;61444;59.472;18.306;2023-05-16T10:36:26;3.73;;;3.33;;
11548;SDS011;61444;59.472;18.306;2023-05-16T10:38:35;3.60;;;3.30;;
11548;SDS011;61444;59.472;18.306;2023-05-16T10:40:44;3.50;;;3.20;;
11548;SDS011;61444;59.472;18.306;2023-05-16T10:42:55;3.70;;;3.40;;
11548;SDS011;61444;59.472;18.306;2023-05-16T10:45:14;4.00;;;3.30;;
11548;SDS011;61444;59.472;18.306;2023-05-16T10:47:26;3.93;;;3.17;;
11548;SDS011;61444;59.472;18.306;2023-05-16T10:49:37;4.00;;;3.53;;
11548;SDS011;61444;59.472;18.306;2023-05-16T10:52:01;3.80;;;3.50;;
11548;SDS011;61444;59.472;18.306;2023-05-16T10:54:11;3.60;;;3.30;;
11548;SDS011;61444;59.472;18.306;2023-05-16T10:56:21;3.70;;;3.40;;
11548;SDS011;61444;59.472;18.306;2023-05-16T10:58:40;3.80;;;3.50;;
11548;SDS011;61444;59.472;18.306;2023-05-16T11:01:04;3.80;;;3.50;;
11548;SDS011;61444;59.472;18.306;2023-05-16T11:03:23;3.60;;;3.30;;
11548;SDS011;61444;59.472;18.306;2023-05-16T11:05:34;3.77;;;3.20;;
11548;SDS011;61444;59.472;18.306;2023-05-16T11:07:42;3.70;;;3.40;;
11548;SDS011;61444;59.472;18.306;2023-05-16T11:09:52;3.67;;;3.37;;
11548;SDS011;61444;59.472;18.306;2023-05-16T11:12:11;4.03;;;3.73;;
11548;SDS011;61444;59.472;18.306;2023-05-16T11:14:21;4.10;;;3.60;;
11548;SDS011;61444;59.472;18.306;2023-05-16T11:16:30;4.30;;;3.90;;
11548;SDS011;61444;59.472;18.306;2023-05-16T11:18:43;4.43;;;4.13;;
11548;SDS011;61444;59.472;18.306;2023-05-16T11:21:01;4.20;;;3.90;;
11548;SDS011;61444;59.472;18.306;2023-05-16T11:23:21;8.70;;;4.30;;
11548;SDS011;61444;59.472;18.306;2023-05-16T11:25:34;4.60;;;4.20;;
11548;SDS011;61444;59.472;18.306;2023-05-16T11:27:45;4.83;;;4.43;;
11548;SDS011;61444;59.472;18.306;2023-05-16T11:29:54;5.07;;;4.67;;
11548;SDS011;61444;59.472;18.306;2023-05-16T11:32:09;5.97;;;5.47;;
11548;SDS011;61444;59.472;18.306;2023-05-16T11:34:20;6.50;;;5.80;;
11548;SDS011;61444;59.472;18.306;2023-05-16T11:36:29;6.37;;;5.77;;
11548;SDS011;61444;59.472;18.306;2023-05-16T11:38:39;6.70;;;6.10;;
11548;SDS011;61444;59.472;18.306;2023-05-16T11:40:49;8.60;;;6.57;;
11548;SDS011;61444;59.472;18.306;2023-05-16T11:42:58;7.10;;;6.40;;
11548;SDS011;61444;59.472;18.306;2023-05-16T11:45:11;8.57;;;6.77;;
11548;SDS011;61444;59.472;18.306;2023-05-16T11:47:22;9.50;;;7.37;;
11548;SDS011;61444;59.472;18.306;2023-05-16T11:49:34;8.37;;;7.57;;
11548;SDS011;61444;59.472;18.306;2023-05-16T11:51:44;12.17;;;8.73;;
11548;SDS011;61444;59.472;18.306;2023-05-16T11:53:53;11.87;;;8.87;;
11548;SDS011;61444;59.472;18.306;2023-05-16T11:56:01;12.00;;;9.07;;
11548;SDS011;61444;59.472;18.306;2023-05-16T11:58:10;13.53;;;8.97;;
11548;SDS011;61444;59.472;18.306;2023-05-16T12:00:21;12.47;;;9.40;;
11548;SDS011;61444;59.472;18.306;2023-05-16T12:02:31;10.57;;;9.17;;
11548;SDS011;61444;59.472;18.306;2023-05-16T12:04:42;11.03;;;8.73;;
11548;SDS011;61444;59.472;18.306;2023-05-16T12:06:58;11.50;;;9.00;;
11548;SDS011;61444;59.472;18.306;2023-05-16T12:09:10;11.70;;;8.67;;
11548;SDS011;61444;59.472;18.306;2023-05-16T12:11:22;10.27;;;8.50;;
11548;SDS011;61444;59.472;18.306;2023-05-16T12:13:31;10.87;;;8.33;;
11548;SDS011;61444;59.472;18.306;2023-05-16T12:15:41;11.23;;;8.53;;
11548;SDS011;61444;59.472;18.306;2023-05-16T12:17:50;11.13;;;8.80;;
11548;SDS011;61444;59.472;18.306;2023-05-16T12:20:00;10.23;;;8.20;;
11548;SDS011;61444;59.472;18.306;2023-05-16T12:22:14;10.60;;;9.27;;
11548;SDS011;61444;59.472;18.306;2023-05-16T12:24:28;10.57;;;8.97;;
11548;SDS011;61444;59.472;18.306;2023-05-16T12:26:38;10.03;;;9.03;;
11548;SDS011;61444;59.472;18.306;2023-05-16T12:28:52;10.00;;;8.70;;
11548;SDS011;61444;59.472;18.306;2023-05-16T12:31:02;10.37;;;9.27;;
11548;SDS011;61444;59.472;18.306;2023-05-16T12:33:14;11.93;;;8.87;;
11548;SDS011;61444;59.472;18.306;2023-05-16T12:35:24;10.57;;;9.07;;
11548;SDS011;61444;59.472;18.306;2023-05-16T12:37:33;10.13;;;9.10;;
11548;SDS011;61444;59.472;18.306;2023-05-16T12:39:42;9.80;;;8.80;;
11548;SDS011;61444;59.472;18.306;2023-05-16T12:41:52;11.33;;;9.13;;
11548;SDS011;61444;59.472;18.306;2023-05-16T12:44:09;13.00;;;10.27;;
11548;SDS011;61444;59.472;18.306;2023-05-16T12:46:19;11.87;;;10.53;;
11548;SDS011;61444;59.472;18.306;2023-05-16T12:48:32;13.77;;;10.07;;
11548;SDS011;61444;59.472;18.306;2023-05-16T12:50:43;11.87;;;9.97;;